Time;durP1;ratioP1;P1;durP2;ratioP2;P2;SDS_P1;SDS_P2;PMS_P1;PMS_P2;Temp;Humidity;BMP_temperature;BMP_pressure;BME280_temperature;BME280_humidity;BME280_pressure;Samples;Min_cycle;Max_cycle;Signal;HPM_P1;HPM_P2
2023/03/08 00:00:17;;;;;;;28.80;14.13;;;2.90;99.90;;;;;;4980643;28;20033;-83
2023/03/08 00:02:43;;;;;;;37.08;13.85;;;2.90;99.90;;;;;;4986436;28;20482;-82
2023/03/08 00:05:09;;;;;;;26.75;13.07;;;2.90;99.90;;;;;;4993501;28;20035;-82
2023/03/08 00:07:35;;;;;;;26.45;13.70;;;3.00;99.90;;;;;;4975386;28;20021;-82
2023/03/08 00:10:02;;;;;;;29.50;13.82;;;3.00;99.90;;;;;;4982834;28;20445;-82
2023/03/08 00:12:28;;;;;;;31.63;13.95;;;3.00;99.90;;;;;;4974132;28;20442;-82
2023/03/08 00:14:53;;;;;;;24.38;12.15;;;3.00;99.90;;;;;;4975823;28;20026;-82
2023/03/08 00:17:19;;;;;;;25.00;12.20;;;3.00;99.90;;;;;;4990674;28;20026;-82
2023/03/08 00:19:45;;;;;;;28.75;12.40;;;2.90;99.90;;;;;;4991626;28;20061;-82
2023/03/08 00:22:10;;;;;;;29.92;12.45;;;2.90;99.90;;;;;;4978910;28;20433;-82
2023/03/08 00:24:37;;;;;;;28.48;12.82;;;3.00;99.90;;;;;;4977224;28;20666;-82
2023/03/08 00:27:03;;;;;;;24.40;11.88;;;2.90;99.90;;;;;;5137994;22;20253;-83
2023/03/08 00:29:30;;;;;;;24.35;12.00;;;2.90;99.90;;;;;;4980801;28;20568;-82
2023/03/08 00:31:55;;;;;;;22.35;11.18;;;2.90;99.90;;;;;;4998575;28;20057;-82
2023/03/08 00:34:23;;;;;;;25.38;12.45;;;2.70;99.90;;;;;;4999705;28;20135;-82
2023/03/08 00:36:49;;;;;;;23.65;11.57;;;2.70;99.90;;;;;;4978865;28;20022;-82
2023/03/08 00:39:15;;;;;;;25.42;12.77;;;2.80;99.90;;;;;;4977037;28;20030;-82
2023/03/08 00:41:41;;;;;;;26.77;12.20;;;2.90;99.90;;;;;;4986803;28;20018;-83
2023/03/08 00:44:09;;;;;;;27.17;12.75;;;3.00;99.90;;;;;;4997042;28;20042;-82
2023/03/08 00:46:34;;;;;;;23.70;11.85;;;3.10;99.90;;;;;;4992745;28;20026;-82
2023/03/08 00:49:03;;;;;;;23.20;11.70;;;3.00;99.90;;;;;;4997569;28;20697;-82
2023/03/08 00:51:29;;;;;;;27.80;12.50;;;2.90;99.90;;;;;;4974884;28;20522;-82
2023/03/08 00:53:54;;;;;;;25.25;12.25;;;2.90;99.90;;;;;;4982842;28;20061;-82
2023/03/08 00:56:20;;;;;;;31.13;13.75;;;2.90;99.90;;;;;;5001535;28;20030;-81
2023/03/08 00:58:46;;;;;;;25.10;13.40;;;2.90;99.90;;;;;;4998369;28;20025;-80
2023/03/08 01:01:15;;;;;;;29.23;13.63;;;2.80;99.90;;;;;;5000304;28;20543;-80
2023/03/08 01:03:41;;;;;;;24.20;12.20;;;2.70;99.90;;;;;;4998977;28;20030;-80
2023/03/08 01:06:12;;;;;;;28.85;13.45;;;2.70;99.90;;;;;;4995930;28;20074;-80
2023/03/08 01:08:41;;;;;;;28.58;14.25;;;2.70;99.90;;;;;;4992953;28;20065;-81
2023/03/08 01:11:13;;;;;;;29.17;12.85;;;2.80;99.90;;;;;;4989757;28;20038;-80
2023/03/08 01:13:38;;;;;;;29.38;14.30;;;2.70;99.90;;;;;;4974457;28;20022;-79
2023/03/08 01:16:04;;;;;;;35.25;13.70;;;2.70;99.90;;;;;;4993877;28;20696;-80
2023/03/08 01:18:30;;;;;;;30.27;13.52;;;2.80;99.90;;;;;;4996104;28;20474;-80
2023/03/08 01:21:01;;;;;;;33.53;15.38;;;2.80;99.90;;;;;;4992306;28;20069;-80
2023/03/08 01:23:27;;;;;;;29.30;14.48;;;2.80;99.90;;;;;;4976405;28;20034;-81
2023/03/08 01:26:01;;;;;;;29.15;13.75;;;2.90;99.90;;;;;;4975743;28;20615;-80
2023/03/08 01:28:28;;;;;;;28.50;14.07;;;2.90;99.90;;;;;;4975189;28;20042;-80
2023/03/08 01:30:53;;;;;;;29.23;14.15;;;2.90;99.90;;;;;;4988887;28;20084;-81
2023/03/08 01:33:19;;;;;;;28.90;14.52;;;2.90;99.90;;;;;;4994270;28;20018;-80
2023/03/08 01:35:46;;;;;;;30.65;14.98;;;2.90;99.90;;;;;;4982685;28;20078;-80
2023/03/08 01:38:11;;;;;;;30.35;14.23;;;3.00;99.90;;;;;;4977486;28;20072;-80
2023/03/08 01:40:37;;;;;;;30.08;14.95;;;3.00;99.90;;;;;;4977683;28;20029;-80
2023/03/08 01:43:21;;;;;;;32.22;15.23;;;3.00;99.90;;;;;;4990231;28;20108;-81
2023/03/08 01:46:26;;;;;;;29.02;14.00;;;2.90;99.90;;;;;;4993912;28;20022;-80
2023/03/08 01:49:08;;;;;;;37.35;15.05;;;2.90;99.90;;;;;;4994167;28;20022;-80
2023/03/08 01:51:44;;;;;;;30.52;14.15;;;3.00;99.90;;;;;;4983161;28;20034;-80
2023/03/08 01:54:18;;;;;;;31.35;15.13;;;2.90;99.90;;;;;;4993142;28;20038;-80
2023/03/08 01:56:45;;;;;;;31.60;15.55;;;2.80;99.90;;;;;;4974963;28;20109;-80
2023/03/08 01:59:11;;;;;;;29.38;14.50;;;2.90;99.90;;;;;;4994300;28;20084;-81
2023/03/08 02:01:40;;;;;;;33.85;15.68;;;2.90;99.90;;;;;;4982943;28;20341;-81
2023/03/08 02:04:09;;;;;;;32.78;14.98;;;3.00;99.90;;;;;;4994968;28;20022;-80
2023/03/08 02:06:34;;;;;;;34.97;15.45;;;3.00;99.90;;;;;;4993370;28;20100;-81
2023/03/08 02:09:03;;;;;;;31.35;14.07;;;3.10;99.90;;;;;;4976041;28;20133;-81
2023/03/08 02:11:30;;;;;;;34.08;14.77;;;3.10;99.90;;;;;;4976117;28;20068;-80
2023/03/08 02:13:56;;;;;;;37.33;14.90;;;3.20;99.90;;;;;;4987393;28;20077;-80
2023/03/08 02:16:22;;;;;;;28.58;14.35;;;3.20;99.90;;;;;;4994525;28;20045;-80
2023/03/08 02:19:02;;;;;;;34.53;15.00;;;3.20;99.90;;;;;;4982125;28;20394;-81
2023/03/08 02:21:30;;;;;;;30.65;13.50;;;3.30;99.90;;;;;;4993298;28;20486;-82
2023/03/08 02:24:06;;;;;;;27.27;14.80;;;3.20;99.90;;;;;;4983613;28;20030;-82
2023/03/08 02:26:35;;;;;;;26.17;13.73;;;3.20;99.90;;;;;;4973912;28;20026;-82
2023/03/08 02:29:03;;;;;;;36.03;14.40;;;3.20;99.90;;;;;;4984661;28;20022;-83
2023/03/08 02:31:29;;;;;;;39.50;16.17;;;3.20;99.90;;;;;;4993876;28;20100;-82
2023/03/08 02:33:57;;;;;;;34.72;17.15;;;3.20;99.90;;;;;;4976409;28;20105;-82
2023/03/08 02:36:22;;;;;;;33.33;15.98;;;3.20;99.90;;;;;;4996316;28;20036;-82
2023/03/08 02:38:48;;;;;;;35.13;15.98;;;3.10;99.90;;;;;;4996418;28;20083;-82
2023/03/08 02:41:14;;;;;;;31.70;15.25;;;3.20;99.90;;;;;;4995457;28;20049;-82
2023/03/08 02:43:39;;;;;;;35.38;16.95;;;3.20;99.90;;;;;;4998971;28;20018;-82
2023/03/08 02:46:09;;;;;;;40.00;17.58;;;3.20;99.90;;;;;;4986167;28;20017;-82
2023/03/08 02:48:35;;;;;;;32.15;16.88;;;3.20;99.90;;;;;;4997552;28;20025;-80
2023/03/08 02:51:00;;;;;;;36.95;17.73;;;3.30;99.90;;;;;;5017313;28;20056;-81
2023/03/08 02:53:26;;;;;;;36.35;18.17;;;3.30;99.90;;;;;;5000664;28;20030;-81
2023/03/08 02:55:51;;;;;;;45.08;18.05;;;3.40;99.90;;;;;;5005882;28;20030;-81
2023/03/08 02:58:17;;;;;;;35.10;17.13;;;3.40;99.90;;;;;;5001351;28;20049;-80
2023/03/08 03:00:43;;;;;;;44.83;17.75;;;3.50;99.90;;;;;;5008429;28;20030;-81
2023/03/08 03:03:08;;;;;;;36.67;16.92;;;3.50;99.90;;;;;;4996701;28;20401;-80
2023/03/08 03:05:34;;;;;;;41.17;17.77;;;3.50;99.90;;;;;;4993291;28;20449;-80
2023/03/08 03:08:00;;;;;;;43.45;18.13;;;3.50;99.90;;;;;;4993641;28;20046;-80
2023/03/08 03:10:25;;;;;;;39.08;17.90;;;3.60;99.90;;;;;;4996027;28;20536;-80
2023/03/08 03:12:51;;;;;;;33.45;16.27;;;3.60;99.90;;;;;;4994703;28;20019;-82
2023/03/08 03:15:17;;;;;;;35.75;17.00;;;3.60;99.90;;;;;;4997997;28;20465;-82
2023/03/08 03:17:42;;;;;;;42.40;17.80;;;3.60;99.90;;;;;;4992829;28;20510;-81
2023/03/08 03:20:09;;;;;;;39.65;17.63;;;3.60;99.90;;;;;;4973919;28;20103;-80
2023/03/08 03:22:35;;;;;;;38.35;17.73;;;3.60;99.90;;;;;;4995354;28;20072;-82
2023/03/08 03:25:01;;;;;;;42.00;18.45;;;3.70;99.90;;;;;;4994459;28;20038;-82
2023/03/08 03:27:26;;;;;;;38.47;17.35;;;3.70;99.90;;;;;;4997493;28;20398;-81
2023/03/08 03:29:52;;;;;;;36.42;16.67;;;3.70;99.90;;;;;;4982767;28;20026;-80
2023/03/08 03:32:18;;;;;;;35.33;16.48;;;3.60;99.90;;;;;;4989673;28;20057;-80
2023/03/08 03:34:43;;;;;;;40.20;15.68;;;3.60;99.90;;;;;;4977362;28;20029;-80
2023/03/08 03:37:11;;;;;;;33.95;15.43;;;3.60;99.90;;;;;;4992048;28;20053;-79
2023/03/08 03:39:38;;;;;;;32.92;16.02;;;3.50;99.90;;;;;;4991982;28;20192;-80
2023/03/08 03:42:05;;;;;;;37.08;16.38;;;3.40;99.90;;;;;;4982711;28;20501;-81
2023/03/08 03:44:31;;;;;;;36.92;17.48;;;3.40;99.90;;;;;;4991397;28;20121;-81
2023/03/08 03:46:59;;;;;;;36.22;16.02;;;3.40;99.90;;;;;;4995206;28;20116;-82
2023/03/08 03:49:25;;;;;;;37.45;16.80;;;3.40;99.90;;;;;;4976178;28;20092;-82
2023/03/08 03:51:51;;;;;;;34.42;16.05;;;3.50;99.90;;;;;;4983698;28;20034;-79
2023/03/08 03:54:17;;;;;;;35.28;16.95;;;3.50;99.90;;;;;;4983807;28;20034;-79
2023/03/08 03:56:42;;;;;;;35.35;16.33;;;3.60;99.90;;;;;;4978406;28;20159;-81
2023/03/08 03:59:08;;;;;;;29.70;14.90;;;3.60;99.90;;;;;;4999918;28;20026;-80
2023/03/08 04:01:33;;;;;;;33.03;15.93;;;3.70;99.90;;;;;;4992815;28;20076;-82
2023/03/08 04:03:59;;;;;;;31.65;15.57;;;3.60;99.90;;;;;;4998739;28;20097;-80
2023/03/08 04:06:27;;;;;;;28.25;14.02;;;3.70;99.90;;;;;;5000643;28;20022;-80
2023/03/08 04:09:05;;;;;;;32.08;14.65;;;3.70;99.90;;;;;;4986627;28;20064;-81
2023/03/08 04:11:34;;;;;;;32.75;15.70;;;3.60;99.90;;;;;;4978990;28;21890;-82
2023/03/08 04:14:00;;;;;;;36.80;14.73;;;3.40;99.90;;;;;;4986420;28;20647;-80
2023/03/08 04:16:30;;;;;;;32.10;15.02;;;3.40;99.90;;;;;;4976500;28;20026;-80
2023/03/08 04:18:58;;;;;;;29.33;14.02;;;3.40;99.90;;;;;;4981483;28;20506;-81
2023/03/08 04:21:25;;;;;;;31.42;15.02;;;3.40;99.90;;;;;;4977978;28;20065;-82
2023/03/08 04:23:51;;;;;;;29.75;14.25;;;3.30;99.90;;;;;;4987430;28;20141;-82
2023/03/08 04:26:17;;;;;;;33.90;15.05;;;3.30;99.90;;;;;;4997173;28;20018;-82
2023/03/08 04:28:42;;;;;;;29.13;14.73;;;3.30;99.90;;;;;;4985845;28;20088;-82
2023/03/08 04:31:23;;;;;;;30.83;14.32;;;3.30;99.90;;;;;;4995717;28;20030;-82
2023/03/08 04:33:49;;;;;;;38.50;15.20;;;3.20;99.90;;;;;;4999103;28;20486;-81
2023/03/08 04:36:16;;;;;;;28.02;15.55;;;3.20;99.90;;;;;;5001953;28;20031;-81
2023/03/08 04:38:43;;;;;;;40.55;16.42;;;3.20;99.90;;;;;;5000301;28;20052;-82
2023/03/08 04:41:11;;;;;;;31.98;15.45;;;3.10;99.90;;;;;;4996494;28;20355;-82
2023/03/08 04:43:38;;;;;;;33.10;15.48;;;3.10;99.90;;;;;;4997094;28;20029;-81
2023/03/08 04:46:05;;;;;;;35.03;15.85;;;3.10;99.90;;;;;;4987080;28;20180;-82
2023/03/08 04:48:30;;;;;;;36.05;16.88;;;3.10;99.90;;;;;;4976401;28;20026;-82
2023/03/08 04:50:58;;;;;;;36.47;16.27;;;3.10;99.90;;;;;;4986494;28;20188;-82
2023/03/08 04:53:25;;;;;;;37.00;15.85;;;3.10;99.90;;;;;;4996215;28;20030;-82
2023/03/08 04:55:54;;;;;;;33.78;16.25;;;3.10;99.90;;;;;;5000801;28;20058;-81
2023/03/08 04:58:20;;;;;;;38.53;16.13;;;3.10;99.90;;;;;;4999884;28;20025;-82
2023/03/08 05:00:46;;;;;;;41.83;17.35;;;3.10;99.90;;;;;;4999649;28;20114;-82
2023/03/08 05:03:13;;;;;;;38.15;16.15;;;3.10;99.90;;;;;;4979306;28;20041;-82
2023/03/08 05:05:49;;;;;;;35.10;16.08;;;3.10;99.90;;;;;;4986152;28;20037;-80
2023/03/08 05:08:18;;;;;;;35.17;16.23;;;3.10;99.90;;;;;;4996280;28;20030;-80
2023/03/08 05:10:58;;;;;;;35.47;16.42;;;3.20;99.90;;;;;;4995267;28;20038;-80
2023/03/08 05:13:25;;;;;;;35.28;15.98;;;3.20;99.90;;;;;;4996617;28;20025;-80
2023/03/08 05:15:52;;;;;;;40.72;16.27;;;3.20;99.90;;;;;;4992495;28;20022;-80
2023/03/08 05:18:20;;;;;;;35.70;16.48;;;3.20;99.90;;;;;;4996113;28;20161;-80
2023/03/08 05:21:00;;;;;;;33.58;16.52;;;3.30;99.90;;;;;;5000919;28;20052;-80
2023/03/08 05:23:30;;;;;;;37.67;15.63;;;3.20;99.90;;;;;;4993718;28;20396;-80
2023/03/08 05:25:57;;;;;;;31.10;15.18;;;3.20;99.90;;;;;;4979199;28;20065;-82
2023/03/08 05:28:25;;;;;;;33.72;16.20;;;3.20;99.90;;;;;;4995459;28;20559;-81
2023/03/08 05:31:10;;;;;;;31.20;15.98;;;3.30;99.90;;;;;;4993820;28;20045;-81
2023/03/08 05:33:36;;;;;;;35.55;15.68;;;3.20;99.90;;;;;;4997941;28;20033;-80
2023/03/08 05:36:03;;;;;;;34.10;16.08;;;3.20;99.90;;;;;;4999088;28;20382;-80
2023/03/08 05:38:29;;;;;;;33.97;16.02;;;3.30;99.90;;;;;;4995240;28;20068;-80
2023/03/08 05:40:59;;;;;;;33.28;15.88;;;3.30;99.90;;;;;;4979522;28;20040;-81
2023/03/08 05:43:25;;;;;;;30.08;14.48;;;3.30;99.90;;;;;;4986668;28;20065;-80
2023/03/08 05:46:01;;;;;;;32.63;15.52;;;3.30;99.90;;;;;;4998054;28;20050;-80
2023/03/08 05:48:28;;;;;;;31.95;15.20;;;3.30;99.90;;;;;;4998225;28;20386;-80
2023/03/08 05:50:53;;;;;;;32.53;15.55;;;3.30;99.90;;;;;;4993669;28;20117;-80
2023/03/08 05:53:22;;;;;;;36.67;14.98;;;3.40;99.90;;;;;;4979896;28;20113;-81
2023/03/08 05:55:48;;;;;;;30.30;14.70;;;3.40;99.90;;;;;;4996853;28;20037;-82
2023/03/08 05:58:13;;;;;;;33.00;15.90;;;3.40;99.90;;;;;;4994788;28;20378;-81
2023/03/08 06:00:39;;;;;;;39.47;17.25;;;3.40;99.90;;;;;;4978176;28;20470;-80
2023/03/08 06:03:05;;;;;;;37.50;16.92;;;3.40;99.90;;;;;;4978013;28;21037;-80
2023/03/08 06:05:31;;;;;;;41.63;17.67;;;3.30;99.90;;;;;;4997038;28;20026;-80
2023/03/08 06:08:00;;;;;;;35.55;16.67;;;3.30;99.90;;;;;;4993078;28;20095;-80
2023/03/08 06:10:25;;;;;;;47.63;17.95;;;3.30;99.90;;;;;;4992395;28;20089;-82
2023/03/08 06:12:51;;;;;;;39.47;17.65;;;3.30;99.90;;;;;;4976750;28;20423;-82
2023/03/08 06:15:17;;;;;;;38.20;18.10;;;3.30;99.90;;;;;;4995600;28;20022;-81
2023/03/08 06:17:43;;;;;;;36.25;17.38;;;3.30;99.90;;;;;;4992463;28;20033;-81
2023/03/08 06:20:09;;;;;;;37.88;17.33;;;3.30;99.90;;;;;;4973335;28;20386;-81
2023/03/08 06:22:35;;;;;;;38.17;18.30;;;3.30;99.90;;;;;;4992684;28;20030;-82
2023/03/08 06:25:01;;;;;;;40.42;17.55;;;3.30;99.90;;;;;;4999385;28;20438;-80
2023/03/08 06:27:27;;;;;;;39.45;18.70;;;3.30;99.90;;;;;;4996448;28;20034;-81
2023/03/08 06:29:52;;;;;;;39.38;17.67;;;3.30;99.90;;;;;;4994258;28;20068;-81
2023/03/08 06:32:18;;;;;;;36.70;17.65;;;3.30;99.90;;;;;;4980109;28;20052;-80
2023/03/08 06:34:45;;;;;;;41.47;18.02;;;3.30;99.90;;;;;;4980161;28;20026;-81
2023/03/08 06:37:11;;;;;;;37.75;18.17;;;3.30;99.90;;;;;;4996633;28;20093;-80
2023/03/08 06:39:37;;;;;;;36.38;17.10;;;3.40;99.90;;;;;;4995497;28;20122;-81
2023/03/08 06:42:02;;;;;;;42.83;18.25;;;3.40;99.90;;;;;;4992820;28;20108;-80
2023/03/08 06:44:29;;;;;;;42.28;18.02;;;3.40;99.90;;;;;;4988985;28;20063;-82
2023/03/08 06:46:55;;;;;;;36.35;17.20;;;3.40;99.90;;;;;;5002998;28;20030;-81
2023/03/08 06:49:22;;;;;;;43.05;17.20;;;3.40;99.90;;;;;;4984628;28;20068;-82
2023/03/08 06:51:48;;;;;;;44.30;17.58;;;3.40;99.90;;;;;;4975590;28;20038;-82
2023/03/08 06:54:16;;;;;;;39.67;17.17;;;3.50;99.90;;;;;;4978094;28;20137;-82
2023/03/08 06:56:46;;;;;;;37.38;16.70;;;3.50;99.90;;;;;;4983029;28;20034;-82
2023/03/08 06:59:12;;;;;;;38.60;17.92;;;3.50;99.90;;;;;;4977356;28;20042;-80
2023/03/08 07:01:39;;;;;;;43.35;19.13;;;3.50;99.90;;;;;;4975453;28;20022;-81
2023/03/08 07:04:07;;;;;;;42.85;16.70;;;3.50;99.90;;;;;;4980933;28;20124;-82
2023/03/08 07:06:35;;;;;;;41.40;17.33;;;3.60;99.90;;;;;;4995724;28;20391;-82
2023/03/08 07:09:01;;;;;;;35.42;17.27;;;3.60;99.90;;;;;;4998124;28;20033;-81
2023/03/08 07:11:28;;;;;;;41.28;18.05;;;3.60;99.90;;;;;;4981986;28;20030;-81
2023/03/08 07:13:56;;;;;;;36.03;16.33;;;3.60;99.90;;;;;;4997001;28;20027;-80
2023/03/08 07:16:22;;;;;;;39.38;17.75;;;3.70;99.90;;;;;;4996149;28;20455;-80
2023/03/08 07:18:47;;;;;;;37.97;17.90;;;3.70;99.90;;;;;;4994880;28;20061;-81
2023/03/08 07:21:13;;;;;;;34.13;17.00;;;3.70;99.90;;;;;;4993595;28;20022;-79
2023/03/08 07:23:38;;;;;;;40.17;17.55;;;3.60;99.90;;;;;;4992601;28;20355;-80
2023/03/08 07:26:09;;;;;;;34.60;16.83;;;3.60;99.90;;;;;;4998072;28;20430;-81
2023/03/08 07:28:35;;;;;;;33.08;15.93;;;3.60;99.90;;;;;;4979723;28;20037;-81
2023/03/08 07:31:01;;;;;;;37.13;16.05;;;3.60;99.90;;;;;;4985644;28;20042;-82
2023/03/08 07:33:27;;;;;;;34.92;14.73;;;3.60;99.90;;;;;;4987874;28;20362;-83
2023/03/08 07:35:53;;;;;;;34.03;14.68;;;3.50;99.90;;;;;;4980805;28;20024;-82
2023/03/08 07:38:19;;;;;;;40.33;16.02;;;3.60;99.90;;;;;;4982655;28;20026;-82
2023/03/08 07:40:44;;;;;;;37.80;15.13;;;3.50;99.90;;;;;;4992697;28;20019;-81
2023/03/08 07:43:10;;;;;;;30.58;14.55;;;3.50;99.90;;;;;;4987606;28;20109;-82
2023/03/08 07:45:39;;;;;;;29.38;14.30;;;3.40;99.90;;;;;;4979143;28;20084;-82
2023/03/08 07:48:05;;;;;;;35.15;14.27;;;3.40;99.90;;;;;;4998441;28;20025;-81
2023/03/08 07:50:31;;;;;;;30.98;14.00;;;3.50;99.90;;;;;;4988810;28;20041;-81
2023/03/08 07:52:58;;;;;;;28.58;13.32;;;3.50;99.90;;;;;;4978963;28;20033;-83
2023/03/08 07:55:24;;;;;;;34.00;13.43;;;3.40;99.90;;;;;;4978627;28;20420;-82
2023/03/08 07:57:50;;;;;;;28.63;13.65;;;3.40;99.90;;;;;;4998814;28;20128;-83
2023/03/08 08:00:16;;;;;;;33.17;14.20;;;3.50;99.90;;;;;;4978820;28;20113;-82
2023/03/08 08:02:42;;;;;;;31.30;12.98;;;3.50;99.90;;;;;;4996110;28;20120;-82
2023/03/08 08:05:08;;;;;;;28.23;11.95;;;3.50;99.90;;;;;;4998370;28;20022;-82
2023/03/08 08:07:33;;;;;;;34.88;12.95;;;3.40;99.90;;;;;;4998787;28;20024;-82
2023/03/08 08:09:59;;;;;;;29.35;13.40;;;3.40;99.90;;;;;;4999135;28;20401;-82
2023/03/08 08:12:25;;;;;;;24.77;12.02;;;3.40;99.90;;;;;;4995729;28;20049;-82
2023/03/08 08:14:51;;;;;;;29.85;12.35;;;3.40;99.90;;;;;;4991094;28;20014;-82
2023/03/08 08:17:18;;;;;;;25.88;11.77;;;3.40;99.90;;;;;;4985198;28;20028;-82
2023/03/08 08:19:44;;;;;;;24.05;11.43;;;3.40;99.90;;;;;;4988220;28;20478;-82
2023/03/08 08:22:10;;;;;;;26.70;11.95;;;3.40;99.90;;;;;;4994904;28;20038;-82
2023/03/08 08:24:35;;;;;;;27.60;12.57;;;3.30;99.90;;;;;;4986115;28;20100;-83
2023/03/08 08:27:01;;;;;;;29.08;13.38;;;3.30;99.90;;;;;;4997904;28;20043;-82
2023/03/08 08:29:27;;;;;;;24.13;12.90;;;3.40;99.90;;;;;;4996869;28;20033;-82
2023/03/08 08:31:52;;;;;;;27.67;12.52;;;3.30;99.90;;;;;;4984348;28;20031;-82
2023/03/08 08:34:19;;;;;;;28.55;13.13;;;3.40;99.90;;;;;;4995180;28;20021;-82
2023/03/08 08:36:45;;;;;;;27.17;12.57;;;3.50;99.90;;;;;;4982266;28;20029;-82
2023/03/08 08:39:11;;;;;;;29.73;13.93;;;3.60;99.90;;;;;;4995251;28;20022;-82
2023/03/08 08:41:36;;;;;;;28.48;11.98;;;3.60;99.90;;;;;;4984794;28;20022;-82
2023/03/08 08:44:02;;;;;;;24.20;11.63;;;3.60;99.90;;;;;;4997285;28;20061;-82
2023/03/08 08:46:32;;;;;;;26.55;11.57;;;3.50;99.90;;;;;;4994419;28;20023;-82
2023/03/08 08:48:58;;;;;;;21.95;10.70;;;3.60;99.90;;;;;;5002790;28;20026;-81
2023/03/08 08:51:24;;;;;;;24.10;10.98;;;3.60;99.90;;;;;;4995874;28;20394;-82
2023/03/08 08:53:51;;;;;;;29.73;11.85;;;3.80;99.90;;;;;;4997176;28;20018;-82
2023/03/08 08:56:19;;;;;;;29.20;11.82;;;3.90;99.90;;;;;;4994672;28;20490;-82
2023/03/08 08:58:46;;;;;;;23.25;10.82;;;3.90;99.90;;;;;;4979506;28;20048;-82
2023/03/08 09:01:33;;;;;;;26.65;11.40;;;3.90;99.90;;;;;;4985767;28;20222;-82
2023/03/08 09:03:59;;;;;;;18.95;9.73;;;3.80;99.90;;;;;;4975965;28;20030;-82
2023/03/08 09:06:26;;;;;;;22.17;10.38;;;3.80;99.90;;;;;;4973372;28;20032;-82
2023/03/08 09:08:58;;;;;;;21.73;10.20;;;3.60;99.90;;;;;;4992928;28;20482;-82
2023/03/08 09:11:24;;;;;;;;;;;3.60;99.90;;;;;;4991529;28;20036;-82
2023/03/08 09:13:53;;;;;;;21.30;9.65;;;3.60;99.90;;;;;;4978117;28;19909;-83
2023/03/08 09:16:31;;;;;;;21.85;9.80;;;3.60;99.90;;;;;;4987112;28;20044;-83
2023/03/08 09:18:58;;;;;;;20.23;9.10;;;3.60;99.90;;;;;;4983930;28;20023;-82
2023/03/08 09:21:25;;;;;;;21.08;10.20;;;3.60;99.90;;;;;;4989448;28;20391;-83
2023/03/08 09:23:53;;;;;;;20.15;9.15;;;3.60;99.90;;;;;;5001510;28;20046;-83
2023/03/08 09:26:19;;;;;;;14.70;8.05;;;3.50;99.90;;;;;;4981617;28;20026;-82
2023/03/08 09:28:47;;;;;;;15.75;8.32;;;3.40;99.90;;;;;;4982507;28;20023;-81
2023/03/08 09:31:18;;;;;;;19.75;7.45;;;3.50;99.90;;;;;;4989659;28;20065;-81
2023/03/08 09:33:47;;;;;;;14.80;7.03;;;3.50;99.90;;;;;;4983921;28;20030;-81
2023/03/08 09:36:13;;;;;;;17.08;8.18;;;3.60;99.90;;;;;;4989122;28;20029;-81
2023/03/08 09:38:39;;;;;;;17.95;8.15;;;3.60;99.90;;;;;;4977635;28;20072;-82
2023/03/08 09:41:24;;;;;;;18.58;7.97;;;3.60;99.90;;;;;;4985517;28;20022;-81
2023/03/08 09:44:02;;;;;;;14.80;7.80;;;3.60;99.90;;;;;;4987695;28;20095;-81
2023/03/08 09:46:33;;;;;;;14.95;7.80;;;3.60;99.90;;;;;;4993713;28;20022;-81
2023/03/08 09:49:00;;;;;;;15.25;7.60;;;3.70;99.90;;;;;;4980926;28;20041;-81
2023/03/08 09:51:33;;;;;;;18.00;7.97;;;3.80;99.90;;;;;;4997235;28;20057;-81
2023/03/08 09:54:04;;;;;;;16.70;7.47;;;3.80;99.90;;;;;;4980580;28;20530;-82
2023/03/08 09:56:50;;;;;;;15.77;6.95;;;3.80;99.90;;;;;;4983700;28;20030;-83
2023/03/08 09:59:40;;;;;;;14.40;7.50;;;3.80;99.90;;;;;;4978715;28;20039;-82
2023/03/08 10:02:33;;;;;;;16.20;8.07;;;3.80;99.90;;;;;;4995264;28;20510;-80
2023/03/08 10:05:02;;;;;;;;;;;3.70;99.90;;;;;;4974662;28;20033;-81
2023/03/08 10:07:40;;;;;;;17.73;6.95;;;3.70;99.90;;;;;;4993374;28;19909;-81
2023/03/08 10:10:11;;;;;;;16.40;7.22;;;3.90;99.90;;;;;;4980242;28;20036;-82
2023/03/08 10:13:01;;;;;;;17.75;7.97;;;3.90;99.90;;;;;;4992851;28;20033;-82
2023/03/08 10:15:30;;;;;;;15.60;7.05;;;4.00;99.90;;;;;;4973016;28;20022;-82
2023/03/08 10:18:21;;;;;;;15.88;7.97;;;4.00;99.90;;;;;;4979032;28;20529;-82
2023/03/08 10:20:47;;;;;;;16.63;8.30;;;4.00;99.90;;;;;;4994534;28;20077;-83
2023/03/08 10:23:19;;;;;;;14.82;8.18;;;4.00;99.90;;;;;;4979267;28;20366;-81
2023/03/08 10:25:46;;;;;;;17.88;8.25;;;4.10;99.90;;;;;;5000918;28;20033;-81
2023/03/08 10:28:21;;;;;;;16.02;8.40;;;4.20;99.90;;;;;;4983717;28;20125;-82
2023/03/08 10:30:49;;;;;;;13.23;7.50;;;4.40;99.90;;;;;;4981665;28;20057;-81
2023/03/08 10:33:23;;;;;;;12.18;7.13;;;4.50;99.90;;;;;;4996118;28;20034;-82
2023/03/08 10:35:57;;;;;;;12.65;7.55;;;4.60;99.90;;;;;;4999501;28;20026;-81
2023/03/08 10:38:26;;;;;;;12.43;7.00;;;4.70;99.90;;;;;;4993578;28;20065;-82
2023/03/08 10:41:00;;;;;;;15.25;7.35;;;4.80;99.90;;;;;;4995113;28;20133;-82
2023/03/08 10:43:27;;;;;;;12.80;7.72;;;4.90;99.90;;;;;;4974866;28;20018;-81
2023/03/08 10:46:09;;;;;;;15.02;7.20;;;5.10;99.90;;;;;;4975783;28;20030;-82
2023/03/08 10:48:35;;;;;;;11.93;7.10;;;5.20;99.90;;;;;;4977069;28;20115;-82
2023/03/08 10:51:05;;;;;;;11.70;6.95;;;5.40;99.90;;;;;;4995458;28;20487;-81
2023/03/08 10:53:32;;;;;;;14.60;7.97;;;5.60;99.90;;;;;;4981521;28;20030;-82
2023/03/08 10:56:00;;;;;;;9.25;6.45;;;5.50;99.90;;;;;;4976124;28;20026;-82
2023/03/08 10:58:28;;;;;;;8.10;5.70;;;5.70;99.90;;;;;;4993978;28;20041;-82
2023/03/08 11:00:55;;;;;;;8.65;6.15;;;5.60;99.90;;;;;;4991833;28;20452;-80
2023/03/08 11:03:23;;;;;;;7.53;5.35;;;5.40;99.90;;;;;;4979853;28;20357;-80
2023/03/08 11:06:14;;;;;;;7.05;4.78;;;5.20;99.90;;;;;;4983174;28;20421;-80
2023/03/08 11:08:55;;;;;;;8.15;4.90;;;5.00;99.90;;;;;;4977112;28;20034;-80
2023/03/08 11:11:21;;;;;;;8.32;5.45;;;4.90;99.90;;;;;;4974296;28;20072;-80
2023/03/08 11:13:49;;;;;;;8.82;5.53;;;4.90;99.90;;;;;;4994269;28;20026;-80
2023/03/08 11:16:33;;;;;;;7.18;4.80;;;5.00;99.90;;;;;;4992284;28;20022;-81
2023/03/08 11:19:25;;;;;;;7.22;4.03;;;5.10;99.90;;;;;;4977173;28;20470;-80
2023/03/08 11:22:06;;;;;;;6.18;4.70;;;5.10;99.90;;;;;;4994728;28;20625;-80
2023/03/08 11:24:58;;;;;;;8.77;5.50;;;5.20;99.90;;;;;;4994126;28;20076;-80
2023/03/08 11:27:45;;;;;;;6.15;5.20;;;5.20;99.90;;;;;;4981071;28;20030;-80
2023/03/08 11:30:25;;;;;;;6.55;4.72;;;5.10;99.90;;;;;;4976980;28;20035;-80
2023/03/08 11:32:54;;;;;;;7.43;5.13;;;5.00;99.90;;;;;;4974042;28;20018;-80
2023/03/08 11:35:34;;;;;;;6.65;4.55;;;4.90;99.90;;;;;;4994570;28;20022;-80
2023/03/08 11:38:08;;;;;;;5.65;4.53;;;4.70;99.90;;;;;;4991835;28;20030;-81
2023/03/08 11:40:52;;;;;;;6.55;5.18;;;4.70;99.90;;;;;;4996088;28;20027;-83
2023/03/08 11:43:30;;;;;;;6.57;4.70;;;4.70;99.90;;;;;;4995857;28;20795;-82
2023/03/08 11:46:18;;;;;;;4.90;4.40;;;4.70;99.90;;;;;;4986452;28;20034;-82
2023/03/08 11:49:15;;;;;;;5.40;4.25;;;4.80;99.90;;;;;;4985638;28;20061;-82
2023/03/08 11:51:59;;;;;;;6.20;4.47;;;5.00;99.90;;;;;;4993439;28;20058;-82
2023/03/08 11:55:00;;;;;;;3.55;3.22;;;5.00;99.90;;;;;;4973627;28;20407;-82
2023/03/08 11:57:33;;;;;;;5.65;4.03;;;4.90;99.90;;;;;;4973404;28;20026;-81
2023/03/08 12:00:11;;;;;;;;;;;4.80;99.90;;;;;;4973784;28;20029;-80
2023/03/08 12:02:42;;;;;;;3.50;3.20;;;4.70;99.90;;;;;;4993905;28;20269;-82
2023/03/08 12:05:35;;;;;;;4.85;3.40;;;4.80;99.90;;;;;;4994830;28;20026;-82
2023/03/08 12:08:12;;;;;;;4.35;3.38;;;4.90;99.90;;;;;;4991519;28;20113;-82
2023/03/08 12:11:05;;;;;;;4.80;3.38;;;4.90;99.90;;;;;;4992758;28;20178;-82
2023/03/08 12:13:45;;;;;;;3.17;2.85;;;4.90;99.90;;;;;;4982510;28;20045;-82
2023/03/08 12:16:13;;;;;;;3.95;3.20;;;4.70;99.90;;;;;;4996361;28;20058;-81
2023/03/08 12:18:50;;;;;;;3.83;3.53;;;4.50;99.90;;;;;;4992412;28;20025;-83
2023/03/08 12:21:24;;;;;;;3.47;2.78;;;4.60;99.90;;;;;;4994921;28;20080;-82
2023/03/08 12:24:07;;;;;;;2.88;2.35;;;4.70;99.90;;;;;;4983512;28;20121;-82
2023/03/08 12:26:43;;;;;;;3.40;3.10;;;4.70;99.90;;;;;;4985478;28;20033;-80
2023/03/08 12:29:17;;;;;;;2.90;2.70;;;4.80;99.90;;;;;;4987578;28;20037;-81
2023/03/08 12:31:45;;;;;;;4.45;3.30;;;5.00;99.90;;;;;;4984386;28;20034;-81
2023/03/08 12:34:34;;;;;;;2.97;2.58;;;5.20;99.90;;;;;;4980877;28;20030;-81
2023/03/08 12:37:00;;;;;;;4.43;3.03;;;5.40;99.90;;;;;;4980249;28;20149;-81
2023/03/08 12:39:29;;;;;;;3.08;2.85;;;5.60;99.90;;;;;;4988306;28;20125;-83
2023/03/08 12:42:13;;;;;;;6.47;2.38;;;5.70;99.90;;;;;;4995440;28;20117;-83
2023/03/08 12:44:39;;;;;;;3.10;2.63;;;5.50;99.90;;;;;;4996679;28;20041;-82
2023/03/08 12:47:11;;;;;;;6.35;2.70;;;5.40;99.90;;;;;;4996755;28;20628;-82
2023/03/08 12:49:43;;;;;;;4.72;3.25;;;5.40;99.90;;;;;;4992156;28;20026;-82
2023/03/08 12:52:17;;;;;;;3.03;2.83;;;5.40;99.90;;;;;;4996879;28;20449;-82
2023/03/08 12:55:17;;;;;;;2.97;2.78;;;5.30;99.90;;;;;;4980522;28;20034;-82